Time;durP1;ratioP1;P1;durP2;ratioP2;P2;SDS_P1;SDS_P2;PMS_P1;PMS_P2;Temp;Humidity;BMP_temperature;BMP_pressure;BME280_temperature;BME280_humidity;BME280_pressure;Samples;Min_cycle;Max_cycle;Signal;HPM_P1;HPM_P2
2022/01/28 00:01:04;;;;;;;6.97;6.67;;;18.30;55.60;;;;;;5052809;28;20481;-51
2022/01/28 00:03:34;;;;;;;7.00;6.80;;;18.20;55.80;;;;;;5052800;28;20480;-50
2022/01/28 00:06:01;;;;;;;7.00;6.80;;;18.10;56.10;;;;;;5051446;28;20456;-52
2022/01/28 00:08:28;;;;;;;7.10;6.77;;;18.00;56.30;;;;;;5052294;28;20471;-50
2022/01/28 00:10:55;;;;;;;6.60;6.40;;;18.00;56.60;;;;;;5052586;28;20448;-51
2022/01/28 00:13:25;;;;;;;7.13;6.90;;;17.90;56.70;;;;;;5052547;28;20443;-54
2022/01/28 00:16:24;;;;;;;6.47;6.27;;;17.90;56.80;;;;;;5052359;28;20525;-52
2022/01/28 00:38:14;;;;;;;7.40;7.10;;;17.60;57.50;;;;;;5051804;28;20586;-53
2022/01/28 00:40:41;;;;;;;6.57;6.40;;;17.60;57.50;;;;;;5052142;28;20448;-57
2022/01/28 00:43:08;;;;;;;6.63;6.33;;;17.60;57.80;;;;;;5051767;28;20495;-50
2022/01/28 00:45:35;;;;;;;6.90;6.70;;;17.60;57.80;;;;;;5051870;28;20451;-50
2022/01/28 00:48:02;;;;;;;6.67;6.37;;;17.60;57.80;;;;;;5051573;28;20475;-51
2022/01/28 00:50:30;;;;;;;7.20;7.00;;;17.50;57.70;;;;;;5051954;28;20463;-52
2022/01/28 00:52:56;;;;;;;7.20;7.00;;;17.60;57.70;;;;;;5051561;28;20456;-54
2022/01/28 00:55:23;;;;;;;7.70;7.23;;;17.50;57.60;;;;;;5051562;28;20472;-58
2022/01/28 00:57:50;;;;;;;7.37;7.10;;;17.50;57.80;;;;;;5051417;28;20464;-54
2022/01/28 01:00:17;;;;;;;7.23;6.93;;;17.40;57.70;;;;;;5051765;28;20451;-51
2022/01/28 01:02:44;;;;;;;6.80;6.50;;;17.40;57.80;;;;;;5051662;28;20444;-50
2022/01/28 01:05:11;;;;;;;7.13;6.93;;;17.40;57.90;;;;;;5051669;28;20448;-54
2022/01/28 01:07:39;;;;;;;6.90;6.60;;;17.40;58.10;;;;;;5051249;28;20468;-51
2022/01/28 01:10:08;;;;;;;6.43;6.27;;;17.40;58.30;;;;;;5051641;28;20451;-52
2022/01/28 01:12:39;;;;;;;6.90;6.80;;;17.40;58.40;;;;;;5051775;28;20824;-51
2022/01/28 01:15:07;;;;;;;6.53;6.43;;;17.30;58.50;;;;;;5051620;28;20870;-50
2022/01/28 01:17:41;;;;;;;6.17;5.97;;;17.30;58.70;;;;;;5050991;28;20472;-53
2022/01/28 01:20:32;;;;;;;6.90;6.60;;;17.20;58.80;;;;;;5031626;28;20951;-50
2022/01/28 01:23:08;;;;;;;6.40;6.30;;;17.30;59.10;;;;;;5031663;28;20491;-50
2022/01/28 01:25:43;;;;;;;6.30;6.20;;;17.20;59.10;;;;;;5031578;28;20448;-52
2022/01/28 01:28:11;;;;;;;7.20;6.90;;;17.20;59.30;;;;;;5035942;28;20487;-50
2022/01/28 01:30:40;;;;;;;7.07;6.77;;;17.10;59.40;;;;;;5051413;28;20510;-53
2022/01/28 01:33:07;;;;;;;7.03;6.73;;;17.10;59.60;;;;;;5051427;28;20478;-55
2022/01/28 01:35:34;;;;;;;6.60;6.40;;;17.10;60.50;;;;;;5051258;28;20441;-54
2022/01/28 01:38:03;;;;;;;6.63;6.43;;;17.00;60.10;;;;;;5050949;28;20476;-58
2022/01/28 01:40:34;;;;;;;6.40;6.20;;;17.00;60.40;;;;;;5051415;28;20452;-51
2022/01/28 01:43:10;;;;;;;7.07;6.77;;;17.00;60.60;;;;;;5051303;28;20484;-50
2022/01/28 01:45:58;;;;;;;6.90;6.70;;;17.00;60.80;;;;;;5051256;28;20980;-52
2022/01/28 01:53:58;;;;;;;6.33;6.20;;;16.90;61.40;;;;;;5051310;28;20550;-51
2022/01/28 01:56:26;;;;;;;7.10;6.90;;;16.90;61.80;;;;;;5050831;28;20444;-51
2022/01/28 01:58:53;;;;;;;6.80;6.60;;;16.80;62.00;;;;;;5051137;28;20475;-52
2022/01/28 02:01:20;;;;;;;6.50;6.20;;;16.80;62.40;;;;;;5051118;28;20444;-51
2022/01/28 02:03:47;;;;;;;6.60;6.40;;;16.80;62.60;;;;;;5051049;28;20488;-56
2022/01/28 02:06:17;;;;;;;6.60;6.40;;;16.80;62.60;;;;;;5050680;28;20456;-54
2022/01/28 02:08:45;;;;;;;6.30;6.20;;;16.80;63.10;;;;;;5050964;28;20468;-53
2022/01/28 02:11:13;;;;;;;6.87;6.57;;;16.80;63.20;;;;;;5051111;28;20448;-55
2022/01/28 02:13:41;;;;;;;7.00;6.80;;;16.80;63.50;;;;;;5051001;28;20793;-54
2022/01/28 02:16:09;;;;;;;6.77;6.57;;;16.70;63.80;;;;;;5050616;28;20451;-56
2022/01/28 02:18:36;;;;;;;6.40;6.23;;;16.70;64.20;;;;;;5050684;28;21176;-54
2022/01/28 02:21:07;;;;;;;5.70;5.60;;;16.70;64.50;;;;;;5051056;28;20448;-51
2022/01/28 02:23:35;;;;;;;6.90;6.70;;;16.70;64.80;;;;;;5051027;28;20561;-55
2022/01/28 02:26:02;;;;;;;7.00;6.73;;;16.70;64.60;;;;;;5050907;28;20780;-52
2022/01/28 02:28:33;;;;;;;6.80;6.60;;;16.70;65.10;;;;;;5051577;28;20984;-53
2022/01/28 02:31:02;;;;;;;6.47;6.20;;;16.70;65.40;;;;;;5054407;28;20444;-54
2022/01/28 02:33:28;;;;;;;7.13;6.93;;;16.60;65.30;;;;;;5054447;28;20498;-52
2022/01/28 02:36:02;;;;;;;6.27;6.00;;;16.60;65.60;;;;;;5054218;28;20450;-51
2022/01/28 02:38:30;;;;;;;6.50;6.20;;;16.60;65.80;;;;;;5053890;28;20977;-51
2022/01/28 02:40:59;;;;;;;5.73;5.60;;;16.60;66.10;;;;;;5054090;28;20440;-51
2022/01/28 02:43:38;;;;;;;6.50;6.30;;;16.50;66.40;;;;;;5054124;28;20488;-55
2022/01/28 02:46:09;;;;;;;6.63;6.50;;;16.60;66.90;;;;;;5054055;28;20459;-56
2022/01/28 02:48:38;;;;;;;6.27;6.17;;;16.60;67.00;;;;;;5053876;28;20526;-50
2022/01/28 02:51:11;;;;;;;6.60;6.40;;;16.60;67.10;;;;;;5053766;28;20529;-52
2022/01/28 02:53:43;;;;;;;7.00;6.80;;;16.60;67.50;;;;;;5053987;28;20444;-52
2022/01/28 02:56:17;;;;;;;6.50;6.40;;;16.50;67.70;;;;;;5053809;28;20448;-51
2022/01/28 02:58:45;;;;;;;6.47;6.27;;;16.50;67.90;;;;;;5053897;28;20470;-56
2022/01/28 03:01:14;;;;;;;6.90;6.50;;;16.50;67.80;;;;;;5053908;28;20455;-56
2022/01/28 03:03:42;;;;;;;5.70;5.60;;;16.50;68.10;;;;;;5053493;28;20512;-52
2022/01/28 03:06:08;;;;;;;6.53;6.43;;;16.50;68.20;;;;;;5053655;28;20454;-53
2022/01/28 03:08:35;;;;;;;6.00;5.90;;;16.40;68.60;;;;;;5053671;28;20969;-54
2022/01/28 03:14:14;;;;;;;6.70;6.50;;;16.50;68.80;;;;;;5053583;28;20459;-56
2022/01/28 03:16:55;;;;;;;6.10;6.00;;;16.50;69.30;;;;;;5053204;28;20448;-56
2022/01/28 03:19:25;;;;;;;6.57;6.47;;;16.50;69.60;;;;;;5053723;28;20476;-53
2022/01/28 03:21:56;;;;;;;6.43;6.33;;;16.50;69.70;;;;;;5053562;28;20446;-52
2022/01/28 03:24:23;;;;;;;6.57;6.30;;;16.50;69.80;;;;;;5053173;28;20483;-55
2022/01/28 03:26:56;;;;;;;6.70;6.50;;;16.50;70.00;;;;;;5053100;28;20444;-53
2022/01/28 03:29:23;;;;;;;6.33;6.23;;;16.40;69.90;;;;;;5053379;28;20451;-54
2022/01/28 03:31:50;;;;;;;6.80;6.37;;;16.40;70.30;;;;;;5053365;28;20444;-55
2022/01/28 03:34:17;;;;;;;7.33;7.03;;;16.40;70.50;;;;;;5052994;28;20447;-52
2022/01/28 03:36:43;;;;;;;6.83;6.53;;;16.40;70.80;;;;;;5052913;28;20448;-55
2022/01/28 03:39:11;;;;;;;6.20;6.10;;;16.40;70.80;;;;;;5053179;28;20467;-55
2022/01/28 03:41:38;;;;;;;6.63;6.43;;;16.40;71.00;;;;;;5053140;28;20546;-54
2022/01/28 03:44:07;;;;;;;6.40;6.30;;;16.40;71.30;;;;;;5052699;28;20491;-52
2022/01/28 03:46:34;;;;;;;6.60;6.40;;;16.30;71.20;;;;;;5052622;28;20973;-55
2022/01/28 03:49:01;;;;;;;6.80;6.60;;;16.20;71.50;;;;;;5052940;28;20451;-54
2022/01/28 03:51:28;;;;;;;6.47;6.27;;;16.20;71.70;;;;;;5053008;28;20459;-52
2022/01/28 03:53:56;;;;;;;6.50;6.30;;;16.30;72.40;;;;;;5052750;28;20803;-54
2022/01/28 03:56:22;;;;;;;6.40;6.30;;;16.30;72.30;;;;;;5052643;28;20456;-52
2022/01/28 03:58:50;;;;;;;6.33;6.03;;;16.30;72.60;;;;;;5052546;28;20464;-50
2022/01/28 04:01:23;;;;;;;6.93;6.63;;;16.40;72.80;;;;;;5052755;28;20465;-53
2022/01/28 04:04:08;;;;;;;7.37;7.17;;;16.20;73.30;;;;;;5052429;28;20476;-52
2022/01/28 04:12:04;;;;;;;6.63;6.53;;;16.20;74.90;;;;;;5052419;28;20486;-55
2022/01/28 04:14:42;;;;;;;6.57;6.37;;;16.10;75.30;;;;;;5052511;28;20940;-55
2022/01/28 04:17:21;;;;;;;6.33;6.13;;;16.10;75.90;;;;;;5052225;28;20501;-50
2022/01/28 04:19:48;;;;;;;6.30;6.20;;;16.10;75.90;;;;;;5052454;28;20449;-53
2022/01/28 04:22:15;;;;;;;6.70;6.50;;;16.10;76.00;;;;;;5052127;28;20440;-55
2022/01/28 04:24:42;;;;;;;6.63;6.43;;;16.10;76.00;;;;;;5052249;28;20476;-52
2022/01/28 04:27:09;;;;;;;6.07;5.97;;;16.20;76.80;;;;;;5052055;28;20527;-54
2022/01/28 04:29:35;;;;;;;6.43;6.23;;;16.10;76.50;;;;;;5052175;28;20463;-54
2022/01/28 04:32:02;;;;;;;6.40;6.20;;;16.10;77.10;;;;;;5051854;28;20451;-52
2022/01/28 04:34:31;;;;;;;6.47;6.27;;;16.10;77.30;;;;;;5052132;28;20444;-57
2022/01/28 04:37:05;;;;;;;6.60;6.20;;;16.10;77.50;;;;;;5051841;28;20474;-55
2022/01/28 04:39:39;;;;;;;6.53;6.33;;;16.10;78.00;;;;;;5052163;28;20501;-53
2022/01/28 04:42:15;;;;;;;6.67;6.30;;;16.00;78.10;;;;;;5052014;28;21003;-55
2022/01/28 04:44:53;;;;;;;6.47;6.07;;;16.00;78.60;;;;;;5051676;28;20494;-51
2022/01/28 04:47:26;;;;;;;5.77;5.67;;;16.00;78.60;;;;;;5051570;28;20554;-55
2022/01/28 04:50:03;;;;;;;5.93;5.83;;;16.00;78.60;;;;;;5052043;28;20467;-55
2022/01/28 04:52:55;;;;;;;6.13;6.03;;;16.00;79.20;;;;;;5051369;28;21040;-50
2022/01/28 04:55:38;;;;;;;6.60;6.40;;;16.10;79.20;;;;;;5051762;28;21004;-56
2022/01/28 04:58:17;;;;;;;7.00;6.80;;;16.20;78.80;;;;;;5051796;28;20464;-53
2022/01/28 05:00:55;;;;;;;6.50;6.30;;;16.10;79.20;;;;;;5051728;28;20440;-55
2022/01/28 05:03:38;;;;;;;7.07;6.80;;;16.10;79.20;;;;;;5051381;28;20448;-51
2022/01/28 05:09:31;;;;;;;7.50;7.30;;;16.10;79.50;;;;;;5051715;28;20427;-54
2022/01/28 05:23:25;;;;;;;7.83;7.63;;;16.10;80.50;;;;;;5037675;28;20844;-60
2022/01/28 05:26:21;;;;;;;8.00;7.70;;;16.10;80.40;;;;;;5051169;28;20571;-58
2022/01/28 05:28:48;;;;;;;6.87;6.77;;;16.10;80.50;;;;;;5051392;28;20468;-54
2022/01/28 05:31:16;;;;;;;6.70;6.60;;;16.20;80.70;;;;;;5051446;28;20794;-57
2022/01/28 05:33:42;;;;;;;7.60;7.40;;;16.20;81.10;;;;;;5051238;28;20448;-57
2022/01/28 05:36:09;;;;;;;7.13;7.00;;;16.10;80.90;;;;;;5051302;28;20808;-58
2022/01/28 05:38:37;;;;;;;7.33;7.00;;;16.10;81.10;;;;;;5051333;28;20460;-55
2022/01/28 05:41:04;;;;;;;7.43;7.23;;;16.20;80.70;;;;;;5051408;28;20941;-58
2022/01/28 05:43:31;;;;;;;7.57;7.37;;;16.10;81.10;;;;;;5050903;28;20455;-59
2022/01/28 05:45:57;;;;;;;7.73;7.50;;;16.10;81.30;;;;;;5050726;28;20480;-60
2022/01/28 05:48:24;;;;;;;7.10;6.90;;;16.10;81.10;;;;;;5051360;28;20468;-60
2022/01/28 05:50:51;;;;;;;6.93;6.73;;;16.20;83.20;;;;;;5051269;28;20456;-61
2022/01/28 05:53:18;;;;;;;7.50;7.20;;;17.30;80.10;;;;;;5051135;28;20456;-57
2022/01/28 05:55:46;;;;;;;7.90;7.60;;;17.80;75.10;;;;;;5051068;28;20440;-59
2022/01/28 05:58:13;;;;;;;9.00;8.60;;;18.10;71.60;;;;;;5051330;28;20823;-57
2022/01/28 06:00:39;;;;;;;7.57;7.37;;;18.40;69.60;;;;;;5051023;28;20455;-54
2022/01/28 06:03:06;;;;;;;8.07;7.87;;;18.80;67.70;;;;;;5051433;28;20440;-60
2022/01/28 06:05:33;;;;;;;7.50;7.40;;;19.00;65.20;;;;;;5054749;28;20480;-59
2022/01/28 06:08:01;;;;;;;8.10;7.80;;;19.20;64.30;;;;;;5054691;28;20981;-57
2022/01/28 06:10:28;;;;;;;8.83;8.40;;;19.40;63.60;;;;;;5054881;28;20824;-56
2022/01/28 06:12:56;;;;;;;9.00;8.60;;;19.50;62.60;;;;;;5054644;28;20455;-55
2022/01/28 06:15:23;;;;;;;8.53;8.23;;;19.60;62.40;;;;;;5054662;28;20440;-60
2022/01/28 06:17:49;;;;;;;9.67;8.70;;;19.70;63.40;;;;;;5054571;28;20475;-60
2022/01/28 06:20:19;;;;;;;9.73;9.13;;;19.80;65.00;;;;;;5054644;28;20960;-55
2022/01/28 06:22:46;;;;;;;9.93;8.93;;;19.90;67.90;;;;;;5054405;28;20821;-59
2022/01/28 06:25:14;;;;;;;10.27;9.27;;;19.90;71.40;;;;;;5054407;28;20484;-59
2022/01/28 06:27:41;;;;;;;10.50;8.97;;;19.90;74.90;;;;;;5054254;28;20546;-60
2022/01/28 06:30:10;;;;;;;10.43;9.20;;;19.90;79.10;;;;;;5055440;28;20451;-55
2022/01/28 06:32:37;;;;;;;12.77;10.90;;;20.00;82.60;;;;;;5054037;28;20452;-54
2022/01/28 06:35:08;;;;;;;12.30;11.23;;;20.00;84.80;;;;;;5054376;28;20973;-52
2022/01/28 06:37:35;;;;;;;13.27;11.90;;;20.00;85.90;;;;;;5053429;28;20459;-53
2022/01/28 06:40:02;;;;;;;11.90;10.80;;;20.00;86.80;;;;;;5054173;28;20451;-53
2022/01/28 06:42:29;;;;;;;11.13;10.20;;;19.90;87.70;;;;;;5054381;28;20954;-54
2022/01/28 06:44:56;;;;;;;10.77;10.07;;;19.90;85.60;;;;;;5054458;28;20487;-52
2022/01/28 06:47:24;;;;;;;11.80;10.77;;;19.80;84.10;;;;;;5054152;28;20483;-53
2022/01/28 06:49:51;;;;;;;15.00;10.07;;;19.70;82.80;;;;;;5054234;28;20450;-54
2022/01/28 06:52:17;;;;;;;12.03;10.73;;;19.70;81.60;;;;;;5054067;28;20797;-52
2022/01/28 06:54:44;;;;;;;11.57;10.67;;;19.60;81.20;;;;;;5054006;28;20447;-53
2022/01/28 06:57:11;;;;;;;8.50;7.80;;;19.60;79.60;;;;;;5053702;28;20479;-53
2022/01/28 06:59:37;;;;;;;12.33;10.03;;;19.60;78.40;;;;;;5053896;28;20456;-52
2022/01/28 07:02:05;;;;;;;9.90;9.20;;;19.60;77.80;;;;;;5053770;28;20472;-54
2022/01/28 07:04:33;;;;;;;12.03;10.77;;;19.50;76.40;;;;;;5053770;28;20540;-53
2022/01/28 07:07:00;;;;;;;10.57;9.60;;;19.50;75.70;;;;;;5053400;28;20471;-51
2022/01/28 07:09:27;;;;;;;12.20;10.20;;;19.50;75.20;;;;;;5054086;28;20455;-56
2022/01/28 07:11:54;;;;;;;10.40;9.80;;;19.40;74.30;;;;;;5053689;28;20448;-52
2022/01/28 07:14:21;;;;;;;11.57;10.63;;;19.40;73.70;;;;;;5053293;28;20458;-58
2022/01/28 07:16:47;;;;;;;10.97;10.27;;;19.30;72.70;;;;;;5053784;28;20448;-53
2022/01/28 07:19:14;;;;;;;10.57;9.67;;;19.30;72.20;;;;;;5053954;28;20797;-54
2022/01/28 07:21:42;;;;;;;9.80;9.00;;;19.20;71.50;;;;;;5053783;28;20436;-54
2022/01/28 07:24:09;;;;;;;10.90;10.17;;;19.20;71.20;;;;;;5053501;28;20805;-57
2022/01/28 07:26:36;;;;;;;9.37;8.80;;;19.10;70.80;;;;;;5052944;28;20507;-52
2022/01/28 07:29:03;;;;;;;9.90;9.20;;;19.10;70.70;;;;;;5053373;28;20449;-53
2022/01/28 07:31:29;;;;;;;11.80;11.00;;;19.10;70.20;;;;;;5053286;28;20444;-58
2022/01/28 07:33:56;;;;;;;11.20;10.20;;;18.90;69.80;;;;;;5053252;28;20444;-52
2022/01/28 07:36:23;;;;;;;11.30;10.30;;;18.90;69.60;;;;;;5053262;28;20544;-55
2022/01/28 07:38:51;;;;;;;13.07;11.97;;;18.90;69.20;;;;;;5052991;28;20965;-53
2022/01/28 07:41:17;;;;;;;9.87;8.97;;;18.90;69.00;;;;;;5053022;28;20459;-52
2022/01/28 07:43:48;;;;;;;10.20;9.40;;;18.80;68.70;;;;;;5053402;28;20448;-54
2022/01/28 07:46:15;;;;;;;8.60;8.10;;;18.80;68.50;;;;;;5053209;28;20480;-55
2022/01/28 07:48:41;;;;;;;10.20;9.50;;;18.80;67.90;;;;;;5053279;28;20475;-56
2022/01/28 07:51:08;;;;;;;9.70;9.00;;;18.60;67.30;;;;;;5053346;28;20444;-59
2022/01/28 07:53:35;;;;;;;10.60;9.80;;;18.60;66.90;;;;;;5053273;28;20455;-53
2022/01/28 07:56:03;;;;;;;11.30;10.37;;;18.60;66.90;;;;;;5052597;28;20452;-57
2022/01/28 07:58:30;;;;;;;10.13;9.50;;;18.50;66.70;;;;;;5052774;28;20466;-53
2022/01/28 08:00:57;;;;;;;9.87;9.30;;;18.40;66.60;;;;;;5052829;28;20825;-54
2022/01/28 08:03:24;;;;;;;11.00;10.13;;;18.40;66.20;;;;;;5052817;28;20444;-55
2022/01/28 08:05:51;;;;;;;10.13;9.60;;;18.30;66.10;;;;;;5052484;28;20487;-53
2022/01/28 08:08:19;;;;;;;10.20;9.60;;;18.30;66.30;;;;;;5052437;28;20474;-57
2022/01/28 08:10:47;;;;;;;9.40;9.00;;;18.20;66.50;;;;;;5052641;28;20455;-57
2022/01/28 08:13:16;;;;;;;9.40;9.00;;;18.20;66.60;;;;;;5052552;28;20505;-53
2022/01/28 08:15:43;;;;;;;10.90;10.27;;;18.10;66.30;;;;;;5052335;28;20444;-54
2022/01/28 08:18:10;;;;;;;9.93;9.20;;;18.10;66.20;;;;;;5052394;28;20498;-54
2022/01/28 08:20:38;;;;;;;9.47;9.00;;;18.00;66.50;;;;;;5052415;28;20957;-52
2022/01/28 08:23:05;;;;;;;9.23;8.83;;;17.90;66.80;;;;;;5052396;28;20934;-60
2022/01/28 08:25:34;;;;;;;10.00;9.60;;;17.90;66.90;;;;;;5051772;28;20484;-58
2022/01/28 08:28:02;;;;;;;9.37;8.87;;;17.90;66.90;;;;;;5051867;28;20504;-55
2022/01/28 08:30:30;;;;;;;8.80;8.10;;;18.10;67.00;;;;;;5052252;28;20452;-50
2022/01/28 08:32:57;;;;;;;9.30;8.53;;;18.30;66.00;;;;;;5052150;28;20440;-50
2022/01/28 08:35:29;;;;;;;7.77;7.47;;;18.40;65.20;;;;;;5051984;28;20467;-51
2022/01/28 08:37:57;;;;;;;9.50;9.10;;;18.60;64.30;;;;;;5052139;28;20845;-50
2022/01/28 08:40:25;;;;;;;9.67;9.23;;;18.80;63.50;;;;;;5052059;28;20451;-51
2022/01/28 08:42:52;;;;;;;9.50;9.00;;;18.80;62.60;;;;;;5052004;28;20452;-51
2022/01/28 08:45:19;;;;;;;9.20;8.80;;;18.90;62.20;;;;;;5051813;28;20487;-50
2022/01/28 08:47:48;;;;;;;9.90;9.40;;;18.90;61.60;;;;;;5051714;28;21059;-54
2022/01/28 08:50:15;;;;;;;10.03;9.60;;;18.90;61.30;;;;;;5051892;28;20930;-50
2022/01/28 08:52:46;;;;;;;10.23;9.63;;;18.90;61.10;;;;;;5051929;28;20817;-51
2022/01/28 08:55:14;;;;;;;8.93;8.67;;;18.90;60.70;;;;;;5051874;28;20446;-51
2022/01/28 08:57:43;;;;;;;10.07;9.47;;;18.90;60.40;;;;;;5051700;28;20464;-52
2022/01/28 09:00:11;;;;;;;10.13;9.50;;;18.90;59.90;;;;;;5051885;28;20448;-50
2022/01/28 09:02:38;;;;;;;10.47;10.07;;;18.90;59.70;;;;;;5051649;28;20456;-51
2022/01/28 09:05:07;;;;;;;10.20;9.80;;;18.90;59.50;;;;;;5051572;28;20459;-50
2022/01/28 09:07:34;;;;;;;8.60;8.20;;;19.00;59.50;;;;;;5051472;28;20464;-51
2022/01/28 09:10:06;;;;;;;8.70;8.40;;;19.00;59.30;;;;;;5051662;28;20830;-51
2022/01/28 09:12:39;;;;;;;9.50;9.00;;;18.90;59.20;;;;;;5051708;28;20452;-49
2022/01/28 09:15:08;;;;;;;9.27;8.90;;;18.90;59.10;;;;;;5051692;28;20545;-49
2022/01/28 09:17:35;;;;;;;9.30;9.00;;;18.90;59.00;;;;;;5051374;28;20483;-53
2022/01/28 09:20:03;;;;;;;9.97;9.57;;;18.90;59.00;;;;;;5051596;28;20918;-56
2022/01/28 09:22:31;;;;;;;9.23;8.93;;;18.90;58.80;;;;;;5051425;28;20456;-56
2022/01/28 09:24:59;;;;;;;9.43;9.13;;;18.80;58.70;;;;;;5051480;28;21036;-49
2022/01/28 09:27:26;;;;;;;8.37;8.07;;;18.80;58.60;;;;;;5051296;28;20464;-49
2022/01/28 09:29:53;;;;;;;9.83;9.43;;;18.80;58.60;;;;;;5051377;28;20447;-50
2022/01/28 09:32:19;;;;;;;9.80;9.40;;;18.70;58.50;;;;;;5051466;28;20447;-52
2022/01/28 09:34:46;;;;;;;9.70;9.30;;;18.70;58.50;;;;;;5051419;28;20463;-50
2022/01/28 09:37:13;;;;;;;9.93;9.47;;;18.70;58.50;;;;;;5051618;28;20460;-52
2022/01/28 09:39:44;;;;;;;9.60;9.20;;;18.60;58.30;;;;;;5055496;28;20509;-51
2022/01/28 09:42:14;;;;;;;10.37;9.87;;;18.60;58.10;;;;;;5055513;28;20937;-50
2022/01/28 09:44:42;;;;;;;10.30;9.60;;;18.50;58.10;;;;;;5055461;28;20436;-50
2022/01/28 09:47:10;;;;;;;9.87;9.37;;;18.50;58.30;;;;;;5054922;28;20483;-49
2022/01/28 09:49:39;;;;;;;8.50;8.23;;;18.40;58.20;;;;;;5055279;28;20976;-53
2022/01/28 09:52:07;;;;;;;10.10;9.77;;;18.40;58.40;;;;;;5055287;28;20509;-50
2022/01/28 09:54:34;;;;;;;9.93;9.30;;;18.40;58.50;;;;;;5055219;28;20447;-50
2022/01/28 09:57:04;;;;;;;9.20;8.73;;;18.30;58.50;;;;;;5054842;28;20472;-50
2022/01/28 09:59:31;;;;;;;9.40;9.00;;;18.20;58.60;;;;;;5055175;28;20450;-51
2022/01/28 10:01:58;;;;;;;9.33;9.03;;;18.20;58.70;;;;;;5055071;28;20456;-53
2022/01/28 10:04:25;;;;;;;9.43;8.93;;;18.30;58.80;;;;;;5055032;28;20448;-49
2022/01/28 10:06:54;;;;;;;8.73;8.43;;;18.50;58.70;;;;;;5054666;28;20483;-54
2022/01/28 10:09:23;;;;;;;9.27;8.97;;;18.60;58.30;;;;;;5054946;28;20452;-50
2022/01/28 10:11:53;;;;;;;8.70;8.40;;;18.80;57.90;;;;;;5054841;28;20448;-49
2022/01/28 10:14:24;;;;;;;9.93;9.63;;;18.90;57.40;;;;;;5054999;28;20448;-49
2022/01/28 10:16:59;;;;;;;9.50;9.20;;;19.00;57.10;;;;;;5054329;28;20451;-49
2022/01/28 10:19:27;;;;;;;10.10;9.80;;;19.20;56.40;;;;;;5054831;28;20444;-49
2022/01/28 10:21:55;;;;;;;9.57;9.27;;;19.20;56.40;;;;;;5054718;28;20934;-52
2022/01/28 10:24:23;;;;;;;9.30;8.90;;;19.30;56.20;;;;;;5054604;28;20871;-50
2022/01/28 10:26:52;;;;;;;9.73;9.30;;;19.40;55.80;;;;;;5054306;28;20484;-50
2022/01/28 10:29:23;;;;;;;9.33;8.93;;;19.40;55.50;;;;;;5054542;28;20467;-53
2022/01/28 10:31:55;;;;;;;9.30;9.10;;;19.50;55.10;;;;;;5054566;28;20440;-50
2022/01/28 10:34:24;;;;;;;9.50;8.93;;;19.50;54.90;;;;;;5054387;28;20451;-52
2022/01/28 10:37:08;;;;;;;8.70;8.40;;;19.60;54.70;;;;;;5054162;28;20448;-51
2022/01/28 10:39:40;;;;;;;8.33;8.03;;;19.60;54.30;;;;;;5054380;28;20444;-54
2022/01/28 10:42:08;;;;;;;9.10;8.80;;;19.60;54.30;;;;;;5054298;28;20961;-52
2022/01/28 10:44:55;;;;;;;9.50;9.10;;;19.70;54.10;;;;;;5054308;28;20444;-51
2022/01/28 10:47:36;;;;;;;9.63;9.27;;;19.70;53.70;;;;;;5053813;28;20495;-54
2022/01/28 10:50:22;;;;;;;10.07;9.77;;;19.80;53.50;;;;;;5053295;28;20444;-49
2022/01/28 10:52:58;;;;;;;9.63;9.23;;;19.60;53.30;;;;;;5054046;28;20444;-49
2022/01/28 10:55:25;;;;;;;9.20;8.90;;;19.50;53.50;;;;;;5054007;28;20440;-49
2022/01/28 10:58:00;;;;;;;8.50;8.20;;;19.50;53.60;;;;;;5053893;28;20464;-53
2022/01/28 11:00:31;;;;;;;9.07;8.77;;;19.40;53.70;;;;;;5053855;28;20443;-51
2022/01/28 11:03:00;;;;;;;9.23;8.93;;;19.40;53.70;;;;;;5054031;28;20448;-54
2022/01/28 11:05:28;;;;;;;9.63;9.30;;;19.50;53.60;;;;;;5053606;28;20449;-50
2022/01/28 11:07:55;;;;;;;8.80;8.60;;;19.40;53.40;;;;;;5053797;28;20802;-50
2022/01/28 11:10:22;;;;;;;10.07;9.67;;;19.50;53.40;;;;;;5053759;28;20449;-50
2022/01/28 11:12:49;;;;;;;8.27;8.07;;;19.50;53.20;;;;;;5053786;28;20453;-55
2022/01/28 11:15:16;;;;;;;9.17;8.97;;;19.50;53.10;;;;;;5053601;28;20692;-52
2022/01/28 11:17:44;;;;;;;9.60;9.30;;;19.60;53.10;;;;;;5053955;28;20818;-57
2022/01/28 11:20:13;;;;;;;9.70;9.30;;;19.70;52.80;;;;;;5053536;28;20463;-59
2022/01/28 11:22:51;;;;;;;10.17;9.77;;;19.60;52.60;;;;;;5053576;28;20962;-57
2022/01/28 11:25:48;;;;;;;9.73;9.43;;;19.50;52.40;;;;;;5053394;28;20931;-55
2022/01/28 11:28:15;;;;;;;10.07;9.77;;;19.40;52.50;;;;;;5014488;28;20476;-60
2022/01/28 11:30:47;;;;;;;9.90;9.60;;;19.30;52.60;;;;;;5053432;28;20816;-58
2022/01/28 11:33:16;;;;;;;9.43;9.13;;;19.30;52.90;;;;;;5053411;28;20450;-57
2022/01/28 11:36:00;;;;;;;9.73;9.43;;;19.30;53.10;;;;;;5053110;28;20451;-54
2022/01/28 11:38:51;;;;;;;9.60;9.40;;;19.40;53.10;;;;;;5053252;28;20459;-59
2022/01/28 11:41:25;;;;;;;10.60;10.20;;;19.90;53.10;;;;;;5038038;28;20460;-57
2022/01/28 11:43:55;;;;;;;9.90;9.50;;;20.10;51.90;;;;;;5053220;28;20782;-53
2022/01/28 11:46:25;;;;;;;9.70;9.40;;;20.20;51.50;;;;;;5052942;28;20534;-56
2022/01/28 11:49:24;;;;;;;10.60;10.30;;;21.20;51.00;;;;;;5053004;28;20476;-57
2022/01/28 11:51:52;;;;;;;9.27;9.00;;;22.40;48.50;;;;;;5052989;28;20440;-54
2022/01/28 11:54:35;;;;;;;9.77;9.57;;;22.00;46.80;;;;;;5052916;28;20967;-54
2022/01/28 11:57:16;;;;;;;9.10;8.80;;;21.40;47.40;;;;;;5052748;28;20522;-60
2022/01/28 11:59:44;;;;;;;9.60;9.10;;;21.00;48.00;;;;;;5052765;28;20459;-53
2022/01/28 12:02:16;;;;;;;9.50;9.30;;;21.20;48.80;;;;;;5052781;28;20476;-53
2022/01/28 12:04:45;;;;;;;9.37;8.97;;;21.60;47.70;;;;;;5052747;28;20522;-59
2022/01/28 12:07:15;;;;;;;7.73;7.53;;;21.40;47.70;;;;;;5052190;28;20484;-58
2022/01/28 12:09:44;;;;;;;9.73;9.43;;;22.00;47.30;;;;;;5052644;28;20490;-59
2022/01/28 12:12:12;;;;;;;9.53;9.23;;;21.70;46.70;;;;;;5052525;28;20448;-60
2022/01/28 12:15:12;;;;;;;10.03;9.53;;;21.40;47.00;;;;;;5052530;28;20681;-60
2022/01/28 12:17:44;;;;;;;9.20;8.97;;;21.00;47.50;;;;;;5052380;28;20480;-55
2022/01/28 12:20:36;;;;;;;8.90;8.60;;;20.70;48.00;;;;;;5052402;28;20821;-57
2022/01/28 12:23:37;;;;;;;8.50;8.30;;;20.50;48.50;;;;;;5052375;28;20452;-58
2022/01/28 12:26:05;;;;;;;9.57;9.17;;;20.40;48.90;;;;;;5052066;28;20527;-59
2022/01/28 12:28:56;;;;;;;8.03;7.73;;;20.40;49.10;;;;;;5052302;28;20829;-55
2022/01/28 12:31:30;;;;;;;8.50;8.20;;;20.20;49.10;;;;;;5037725;28;20456;-53
2022/01/28 12:34:00;;;;;;;8.00;7.80;;;20.20;49.40;;;;;;5052169;28;20547;-60
2022/01/28 12:36:31;;;;;;;8.33;8.03;;;20.10;49.40;;;;;;5051900;28;20929;-56
2022/01/28 12:39:08;;;;;;;8.50;8.30;;;20.30;49.50;;;;;;5052355;28;20460;-58
2022/01/28 12:41:43;;;;;;;7.67;7.53;;;20.20;49.40;;;;;;5052171;28;20444;-60
2022/01/28 12:44:11;;;;;;;8.10;7.90;;;20.20;49.10;;;;;;5052258;28;20444;-60
2022/01/28 12:46:39;;;;;;;9.43;9.23;;;20.40;49.20;;;;;;5051653;28;20484;-60
2022/01/28 12:49:09;;;;;;;8.67;8.47;;;20.60;48.90;;;;;;5051889;28;20452;-60
2022/01/28 12:51:40;;;;;;;8.47;8.27;;;20.60;48.20;;;;;;5051986;28;20449;-60
2022/01/28 12:54:08;;;;;;;9.50;9.17;;;20.60;48.20;;;;;;5051896;28;20981;-59
2022/01/28 12:56:36;;;;;;;9.10;8.90;;;20.40;48.40;;;;;;5051724;28;20468;-59
2022/01/28 12:59:04;;;;;;;9.70;9.40;;;20.40;48.50;;;;;;5051860;28;20448;-60
2022/01/28 13:01:31;;;;;;;8.90;8.60;;;20.20;48.50;;;;;;5051851;28;20444;-60
2022/01/28 13:04:05;;;;;;;9.50;9.17;;;20.00;48.80;;;;;;5051807;28;20447;-57
2022/01/28 13:06:43;;;;;;;8.80;8.60;;;19.90;48.90;;;;;;5051473;28;20574;-60
2022/01/28 13:09:14;;;;;;;9.00;8.70;;;19.70;49.40;;;;;;5051560;28;20922;-59
2022/01/28 13:11:44;;;;;;;7.87;7.67;;;19.60;49.50;;;;;;5051411;28;20507;-59
2022/01/28 13:14:13;;;;;;;6.90;6.70;;;19.60;49.90;;;;;;5051518;28;20814;-57
2022/01/28 13:16:42;;;;;;;8.13;7.83;;;19.60;50.10;;;;;;5051095;28;20452;-55
2022/01/28 13:19:11;;;;;;;7.60;7.40;;;19.90;50.10;;;;;;5051473;28;20441;-60
2022/01/28 13:21:39;;;;;;;8.10;7.90;;;20.10;49.50;;;;;;5051430;28;20444;-60
2022/01/28 13:24:13;;;;;;;7.90;7.60;;;20.30;49.20;;;;;;5051620;28;20464;-58
2022/01/28 13:26:54;;;;;;;8.40;8.20;;;20.50;48.80;;;;;;5051138;28;20489;-60
2022/01/28 13:29:30;;;;;;;6.97;6.87;;;20.80;48.60;;;;;;5051490;28;20459;-58
2022/01/28 13:31:58;;;;;;;7.20;7.00;;;20.80;48.10;;;;;;5051510;28;20776;-58
2022/01/28 13:34:25;;;;;;;8.20;8.00;;;20.70;48.20;;;;;;5051238;28;21009;-60
2022/01/28 13:36:55;;;;;;;9.07;8.87;;;20.60;48.00;;;;;;5051179;28;20837;-60
2022/01/28 13:39:28;;;;;;;8.30;8.10;;;20.50;48.10;;;;;;5051428;28;20448;-54
2022/01/28 13:42:12;;;;;;;9.13;8.83;;;20.30;48.30;;;;;;5051403;28;20984;-59
2022/01/28 13:44:42;;;;;;;8.40;8.20;;;20.20;48.80;;;;;;5050239;28;20463;-51
2022/01/28 13:47:10;;;;;;;8.63;8.40;;;20.10;49.00;;;;;;5050799;28;20484;-55